Time;durP1;ratioP1;P1;durP2;ratioP2;P2;SDS_P1;SDS_P2;PMS_P1;PMS_P2;Temp;Humidity;BMP_temperature;BMP_pressure;BME280_temperature;BME280_humidity;BME280_pressure;Samples;Min_cycle;Max_cycle;Signal;HPM_P1;HPM_P2
2023/12/23 00:00:37;;;;;;;9.60;4.80;;;;;;;;;;10322059;28;20030;-76
2023/12/23 00:05:37;;;;;;;9.35;4.40;;;;;;;;;;10323739;28;20061;-76
2023/12/23 00:10:38;;;;;;;12.43;5.03;;;;;;;;;;10324044;28;20018;-76
2023/12/23 00:15:38;;;;;;;6.88;3.78;;;;;;;;;;10326142;28;20041;-77
2023/12/23 00:20:38;;;;;;;9.38;5.20;;;;;;;;;;10318458;28;20022;-74
2023/12/23 00:25:39;;;;;;;10.20;4.50;;;;;;;;;;10317593;28;20113;-76
2023/12/23 00:30:39;;;;;;;14.05;4.43;;;;;;;;;;10320598;28;20014;-82
2023/12/23 00:35:41;;;;;;;9.38;4.03;;;;;;;;;;10319736;28;20025;-75
2023/12/23 00:40:41;;;;;;;12.55;4.22;;;;;;;;;;10320427;28;20018;-76
2023/12/23 00:45:41;;;;;;;11.05;4.07;;;;;;;;;;10319553;28;20022;-80
2023/12/23 00:50:41;;;;;;;7.20;3.70;;;;;;;;;;10319086;28;20022;-76
2023/12/23 00:55:42;;;;;;;8.30;4.28;;;;;;;;;;10319972;28;20117;-78
2023/12/23 01:00:42;;;;;;;9.70;4.63;;;;;;;;;;10319006;28;20037;-76
2023/12/23 01:05:42;;;;;;;10.60;5.30;;;;;;;;;;10334935;28;20565;-76
2023/12/23 01:10:42;;;;;;;9.53;4.00;;;;;;;;;;10334735;28;20021;-76
2023/12/23 01:15:43;;;;;;;11.73;5.00;;;;;;;;;;10318010;28;20180;-76
2023/12/23 01:20:43;;;;;;;8.77;4.82;;;;;;;;;;10334606;28;20015;-75
2023/12/23 01:25:43;;;;;;;9.05;4.78;;;;;;;;;;10334466;28;20030;-75
2023/12/23 01:30:43;;;;;;;9.05;4.78;;;;;;;;;;10327544;28;20038;-75
2023/12/23 01:35:44;;;;;;;10.23;5.43;;;;;;;;;;10319067;28;20120;-78
2023/12/23 01:40:45;;;;;;;11.05;4.72;;;;;;;;;;10341360;28;20416;-80
2023/12/23 01:45:46;;;;;;;8.32;4.30;;;;;;;;;;10329398;28;20026;-78
2023/12/23 01:50:46;;;;;;;7.07;4.18;;;;;;;;;;10331059;28;20029;-77
2023/12/23 01:55:46;;;;;;;7.90;4.60;;;;;;;;;;10342789;28;20401;-77
2023/12/23 02:00:46;;;;;;;9.70;4.57;;;;;;;;;;10324005;28;20064;-79
2023/12/23 02:05:47;;;;;;;5.95;3.28;;;;;;;;;;10320286;28;20046;-80
2023/12/23 02:10:48;;;;;;;5.00;3.13;;;;;;;;;;10326360;28;20030;-80
2023/12/23 02:15:49;;;;;;;8.68;3.17;;;;;;;;;;10325895;28;20452;-74
2023/12/23 02:20:50;;;;;;;6.45;3.08;;;;;;;;;;10324953;28;20025;-75
2023/12/23 02:25:53;;;;;;;8.38;4.10;;;;;;;;;;10325555;28;20076;-75
2023/12/23 02:30:54;;;;;;;6.30;4.25;;;;;;;;;;10340608;28;20044;-79
2023/12/23 02:35:54;;;;;;;9.65;4.40;;;;;;;;;;10323165;28;20018;-79
2023/12/23 02:40:54;;;;;;;6.40;3.33;;;;;;;;;;10324236;28;20416;-76
2023/12/23 02:45:55;;;;;;;6.30;3.72;;;;;;;;;;10324237;28;20025;-79
2023/12/23 02:50:55;;;;;;;5.13;3.30;;;;;;;;;;10321087;28;20026;-81
2023/12/23 02:55:55;;;;;;;5.13;3.28;;;;;;;;;;10306679;28;20034;-78
2023/12/23 03:00:55;;;;;;;4.63;3.00;;;;;;;;;;10327450;28;20042;-77
2023/12/23 03:05:56;;;;;;;4.37;2.83;;;;;;;;;;10323520;28;20057;-76
2023/12/23 03:10:56;;;;;;;6.18;2.97;;;;;;;;;;10319537;28;20393;-77
2023/12/23 03:15:56;;;;;;;5.32;2.72;;;;;;;;;;10323694;28;20032;-74
2023/12/23 03:20:56;;;;;;;4.18;3.08;;;;;;;;;;10323876;28;20028;-80
2023/12/23 03:25:56;;;;;;;3.28;2.03;;;;;;;;;;10329087;28;20093;-76
2023/12/23 03:30:57;;;;;;;8.50;2.83;;;;;;;;;;10323967;28;20050;-78
2023/12/23 03:35:58;;;;;;;5.32;2.90;;;;;;;;;;10323242;28;20105;-76
2023/12/23 03:40:59;;;;;;;4.28;2.35;;;;;;;;;;10322499;28;20026;-80
2023/12/23 03:45:59;;;;;;;6.15;4.18;;;;;;;;;;10323309;28;20405;-76
2023/12/23 03:50:59;;;;;;;3.75;3.10;;;;;;;;;;10313295;28;20025;-79
2023/12/23 03:55:59;;;;;;;3.45;2.85;;;;;;;;;;10313634;28;20186;-75
2023/12/23 04:01:00;;;;;;;5.07;2.60;;;;;;;;;;10336978;28;20081;-78
2023/12/23 04:06:00;;;;;;;4.15;2.92;;;;;;;;;;10320495;28;20050;-78
2023/12/23 04:11:01;;;;;;;3.45;2.60;;;;;;;;;;10321161;28;20022;-75
2023/12/23 04:16:04;;;;;;;2.70;2.30;;;;;;;;;;10336532;28;20489;-75
2023/12/23 04:21:09;;;;;;;6.10;2.28;;;;;;;;;;10328909;28;20026;-78
2023/12/23 04:26:10;;;;;;;5.57;3.15;;;;;;;;;;10320250;28;20025;-80
2023/12/23 04:31:11;;;;;;;4.00;2.78;;;;;;;;;;10320921;28;20026;-75
2023/12/23 04:36:11;;;;;;;2.83;1.83;;;;;;;;;;10336341;28;20052;-76
2023/12/23 04:41:11;;;;;;;6.40;2.10;;;;;;;;;;10318893;28;20026;-74
2023/12/23 04:46:12;;;;;;;2.78;1.65;;;;;;;;;;10336707;28;20113;-79
2023/12/23 04:51:12;;;;;;;2.22;1.92;;;;;;;;;;10319785;28;20065;-75
2023/12/23 04:56:12;;;;;;;6.15;1.98;;;;;;;;;;10314641;28;20553;-74
2023/12/23 05:01:12;;;;;;;3.28;2.10;;;;;;;;;;10332934;28;20117;-75
2023/12/23 05:06:13;;;;;;;3.90;1.85;;;;;;;;;;10355630;28;20041;-76
2023/12/23 05:11:13;;;;;;;4.95;1.98;;;;;;;;;;10343794;28;20586;-76
2023/12/23 05:16:13;;;;;;;2.20;1.73;;;;;;;;;;10373027;28;20022;-76
2023/12/23 05:21:13;;;;;;;11.27;2.53;;;;;;;;;;10360025;28;20832;-77
2023/12/23 05:26:19;;;;;;;2.30;1.67;;;;;;;;;;10353567;28;20479;-79
2023/12/23 05:31:19;;;;;;;2.10;1.70;;;;;;;;;;10368578;28;20074;-79
2023/12/23 05:36:19;;;;;;;3.13;1.75;;;;;;;;;;10351028;28;20022;-80
2023/12/23 05:41:19;;;;;;;4.75;1.85;;;;;;;;;;10351091;28;20043;-78
2023/12/23 05:46:19;;;;;;;2.28;1.55;;;;;;;;;;10351760;28;20034;-81
2023/12/23 05:51:20;;;;;;;2.47;1.42;;;;;;;;;;10347539;28;20022;-80
2023/12/23 05:56:20;;;;;;;3.33;1.98;;;;;;;;;;10348779;28;20459;-79
2023/12/23 06:01:20;;;;;;;1.90;1.30;;;;;;;;;;10364925;28;20396;-77
2023/12/23 06:06:20;;;;;;;4.63;2.00;;;;;;;;;;10348487;28;20042;-79
2023/12/23 06:11:21;;;;;;;2.53;1.50;;;;;;;;;;10348048;28;20034;-78
2023/12/23 06:16:22;;;;;;;2.47;1.60;;;;;;;;;;10347532;28;20265;-82
2023/12/23 06:21:22;;;;;;;2.03;1.42;;;;;;;;;;10331896;28;20096;-80
2023/12/23 06:26:23;;;;;;;4.70;1.60;;;;;;;;;;10339161;28;20103;-78
2023/12/23 06:31:23;;;;;;;6.93;1.80;;;;;;;;;;10318314;28;20092;-76
2023/12/23 06:36:23;;;;;;;4.35;2.50;;;;;;;;;;10356927;28;20022;-76
2023/12/23 06:41:23;;;;;;;11.85;1.75;;;;;;;;;;10332639;28;20070;-79
2023/12/23 06:51:31;;;;;;;7.45;3.30;;;;;;;;;;10299471;28;20054;-75
2023/12/23 06:56:31;;;;;;;4.80;2.20;;;;;;;;;;10325422;28;20382;-75
2023/12/23 07:01:36;;;;;;;4.25;2.38;;;;;;;;;;10311212;28;20472;-75
2023/12/23 07:06:37;;;;;;;2.65;2.00;;;;;;;;;;10297590;28;20046;-75
2023/12/23 07:11:37;;;;;;;6.78;2.58;;;;;;;;;;10303075;28;20109;-75
2023/12/23 07:16:39;;;;;;;3.85;2.05;;;;;;;;;;10299898;28;20101;-78
2023/12/23 07:21:39;;;;;;;4.75;1.88;;;;;;;;;;10297513;28;20031;-76
2023/12/23 07:26:40;;;;;;;1.60;0.95;;;;;;;;;;10301666;28;20894;-75
2023/12/23 07:31:40;;;;;;;7.35;2.10;;;;;;;;;;10301239;28;20007;-75
2023/12/23 07:36:40;;;;;;;13.57;2.08;;;;;;;;;;10302861;28;20015;-74
2023/12/23 07:41:40;;;;;;;5.35;1.40;;;;;;;;;;10297916;28;20428;-76
2023/12/23 07:46:41;;;;;;;2.33;0.87;;;;;;;;;;10292622;28;20058;-78
2023/12/23 07:51:41;;;;;;;11.40;2.03;;;;;;;;;;10277755;28;20027;-73
2023/12/23 07:56:42;;;;;;;2.30;1.15;;;;;;;;;;10288555;28;20026;-76
2023/12/23 08:01:43;;;;;;;3.30;1.55;;;;;;;;;;10296194;28;20027;-74
2023/12/23 08:06:44;;;;;;;1.80;0.85;;;;;;;;;;10283136;28;20026;-74
2023/12/23 08:11:44;;;;;;;4.00;1.35;;;;;;;;;;10275363;28;20028;-82
2023/12/23 08:16:45;;;;;;;6.90;1.83;;;;;;;;;;10285097;28;21406;-75
2023/12/23 08:21:46;;;;;;;2.05;1.30;;;;;;;;;;10289255;28;20031;-79
2023/12/23 08:26:48;;;;;;;5.88;2.10;;;;;;;;;;10270790;28;20030;-79
2023/12/23 08:31:48;;;;;;;2.53;1.38;;;;;;;;;;10281212;28;20030;-76
2023/12/23 08:36:49;;;;;;;8.40;4.00;;;;;;;;;;10277567;28;20030;-79
2023/12/23 08:41:49;;;;;;;7.78;3.10;;;;;;;;;;10280400;28;20030;-80
2023/12/23 08:46:50;;;;;;;2.53;1.45;;;;;;;;;;10283585;28;20027;-76
2023/12/23 08:51:50;;;;;;;5.60;2.20;;;;;;;;;;10277495;28;20029;-76
2023/12/23 08:56:50;;;;;;;5.20;2.13;;;;;;;;;;10287381;28;20460;-76
2023/12/23 09:01:51;;;;;;;9.35;4.57;;;;;;;;;;10288526;28;20030;-73
2023/12/23 09:06:51;;;;;;;5.43;3.45;;;;;;;;;;10294312;28;20049;-74
2023/12/23 09:11:51;;;;;;;9.02;4.25;;;;;;;;;;10275826;28;20122;-75
2023/12/23 09:16:52;;;;;;;5.10;2.90;;;;;;;;;;10301038;28;20026;-76
2023/12/23 09:21:52;;;;;;;5.57;3.35;;;;;;;;;;10295445;28;20113;-75
2023/12/23 09:26:52;;;;;;;4.75;3.05;;;;;;;;;;10295213;28;20038;-77
2023/12/23 09:31:52;;;;;;;4.72;2.85;;;;;;;;;;10292917;28;20517;-79
2023/12/23 09:36:53;;;;;;;5.60;3.08;;;;;;;;;;10288377;28;20029;-79
2023/12/23 09:41:54;;;;;;;3.70;2.50;;;;;;;;;;10285323;28;20659;-79
2023/12/23 09:46:54;;;;;;;3.53;2.00;;;;;;;;;;10295355;28;20049;-79
2023/12/23 09:51:55;;;;;;;9.30;2.70;;;;;;;;;;10289493;28;20021;-78
2023/12/23 09:56:55;;;;;;;3.25;2.40;;;;;;;;;;10288900;28;20041;-79
2023/12/23 10:01:55;;;;;;;2.97;1.90;;;;;;;;;;10300553;28;20112;-79
2023/12/23 10:06:55;;;;;;;2.72;2.20;;;;;;;;;;10298227;28;20334;-79
2023/12/23 10:11:56;;;;;;;4.43;2.22;;;;;;;;;;10302501;28;20543;-78
2023/12/23 10:16:58;;;;;;;4.70;2.00;;;;;;;;;;10297657;28;20033;-82
2023/12/23 10:21:59;;;;;;;2.22;1.52;;;;;;;;;;10304159;28;20018;-79
2023/12/23 10:26:59;;;;;;;2.90;1.85;;;;;;;;;;10305255;28;20023;-82
2023/12/23 10:32:07;;;;;;;4.82;1.98;;;;;;;;;;10305660;28;20494;-78
2023/12/23 10:37:08;;;;;;;10.77;2.73;;;;;;;;;;10291134;28;20440;-79
2023/12/23 10:42:11;;;;;;;3.67;2.10;;;;;;;;;;10303119;28;20026;-79
2023/12/23 10:47:11;;;;;;;2.00;1.67;;;;;;;;;;10303530;28;20089;-79
2023/12/23 10:52:14;;;;;;;1.35;1.25;;;;;;;;;;10303439;28;20049;-84
2023/12/23 10:57:15;;;;;;;2.05;1.85;;;;;;;;;;10296427;28;20103;-81
2023/12/23 11:02:22;;;;;;;4.72;1.55;;;;;;;;;;10310140;28;20126;-81
2023/12/23 11:07:29;;;;;;;2.08;1.90;;;;;;;;;;10306773;28;20485;-81
2023/12/23 11:12:29;;;;;;;1.92;1.40;;;;;;;;;;10319250;28;20488;-79
2023/12/23 11:17:30;;;;;;;10.30;1.70;;;;;;;;;;10319943;28;20046;-81
2023/12/23 11:22:40;;;;;;;3.25;1.77;;;;;;;;;;10311619;28;20029;-85
2023/12/23 11:27:41;;;;;;;3.15;1.20;;;;;;;;;;10312967;28;20014;-74
2023/12/23 11:32:43;;;;;;;2.63;1.45;;;;;;;;;;10313724;28;20464;-80
2023/12/23 11:37:51;;;;;;;2.90;2.25;;;;;;;;;;10293338;28;20417;-81
2023/12/23 11:42:51;;;;;;;3.03;1.50;;;;;;;;;;10318795;28;20332;-80
2023/12/23 11:47:51;;;;;;;2.78;1.48;;;;;;;;;;10304482;28;20058;-80
2023/12/23 11:52:52;;;;;;;3.25;1.63;;;;;;;;;;10300624;28;20076;-84
2023/12/23 11:57:52;;;;;;;2.25;1.42;;;;;;;;;;10301835;28;20023;-81
2023/12/23 12:02:52;;;;;;;1.52;1.20;;;;;;;;;;10295838;28;20141;-83
2023/12/23 12:07:53;;;;;;;7.20;4.30;;;;;;;;;;10297155;28;20496;-80
2023/12/23 12:12:53;;;;;;;1.42;1.33;;;;;;;;;;10276582;28;20023;-85
2023/12/23 12:17:53;;;;;;;2.97;1.80;;;;;;;;;;10287074;28;20022;-78
2023/12/23 12:22:54;;;;;;;2.65;1.40;;;;;;;;;;10303365;28;20324;-84
2023/12/23 12:27:54;;;;;;;4.25;2.08;;;;;;;;;;10281927;28;20460;-79
2023/12/23 12:32:56;;;;;;;2.88;1.65;;;;;;;;;;10305452;28;20014;-81
2023/12/23 12:37:57;;;;;;;6.35;1.60;;;;;;;;;;10308110;28;20029;-83
2023/12/23 12:43:04;;;;;;;4.00;2.03;;;;;;;;;;10302540;28;20023;-84
2023/12/23 12:48:05;;;;;;;5.27;2.60;;;;;;;;;;10286663;28;20067;-74
2023/12/23 12:53:05;;;;;;;5.68;3.47;;;;;;;;;;10305911;28;20025;-77
2023/12/23 12:58:07;;;;;;;2.40;1.48;;;;;;;;;;10297024;28;20747;-78
2023/12/23 13:03:07;;;;;;;4.80;2.15;;;;;;;;;;10294169;28;20034;-78
2023/12/23 13:08:07;;;;;;;2.83;1.80;;;;;;;;;;10300663;28;20041;-79
2023/12/23 13:13:08;;;;;;;4.43;2.17;;;;;;;;;;10297016;28;20370;-81
2023/12/23 13:18:08;;;;;;;4.53;2.50;;;;;;;;;;10287739;28;20453;-82
2023/12/23 13:23:09;;;;;;;7.88;2.45;;;;;;;;;;10292592;28;20029;-78
2023/12/23 13:28:09;;;;;;;3.60;2.03;;;;;;;;;;10276428;28;20019;-82
2023/12/23 13:33:09;;;;;;;4.95;3.35;;;;;;;;;;10281019;28;20022;-78
2023/12/23 13:38:10;;;;;;;4.07;2.63;;;;;;;;;;10297944;28;20027;-79
2023/12/23 13:43:10;;;;;;;3.53;2.20;;;;;;;;;;10302136;28;20031;-78
2023/12/23 13:48:11;;;;;;;6.68;2.90;;;;;;;;;;10308065;28;20046;-73
2023/12/23 13:53:12;;;;;;;7.80;3.55;;;;;;;;;;10305268;28;20117;-81
2023/12/23 13:58:12;;;;;;;4.88;3.20;;;;;;;;;;10317961;28;20019;-78
2023/12/23 14:03:12;;;;;;;5.45;3.42;;;;;;;;;;10305667;28;20320;-76
2023/12/23 14:08:13;;;;;;;5.90;4.15;;;;;;;;;;10313947;28;20030;-78
2023/12/23 14:13:14;;;;;;;10.15;4.82;;;;;;;;;;10295490;28;20072;-81
2023/12/23 14:18:15;;;;;;;4.80;3.83;;;;;;;;;;10296254;28;20749;-79
2023/12/23 14:23:15;;;;;;;7.95;4.00;;;;;;;;;;10303879;28;20023;-77
2023/12/23 14:28:15;;;;;;;7.55;4.60;;;;;;;;;;10289393;28;20022;-78
2023/12/23 14:33:16;;;;;;;10.63;3.47;;;;;;;;;;10305141;28;20030;-75
2023/12/23 14:38:16;;;;;;;4.60;3.80;;;;;;;;;;10304336;28;20019;-77
2023/12/23 14:43:16;;;;;;;9.57;3.22;;;;;;;;;;10306185;28;20105;-77
2023/12/23 14:48:16;;;;;;;7.88;4.75;;;;;;;;;;10286961;28;20406;-75
2023/12/23 14:53:16;;;;;;;8.95;5.63;;;;;;;;;;10318426;28;20567;-76
2023/12/23 14:58:17;;;;;;;7.47;5.20;;;;;;;;;;10299602;28;20027;-76
2023/12/23 15:03:17;;;;;;;6.80;4.32;;;;;;;;;;10302897;28;20021;-75
2023/12/23 15:08:17;;;;;;;9.68;5.18;;;;;;;;;;10300867;28;20652;-75
2023/12/23 15:13:20;;;;;;;8.05;5.72;;;;;;;;;;10317770;28;20040;-77
2023/12/23 15:18:20;;;;;;;6.90;5.63;;;;;;;;;;10303201;28;20038;-75
2023/12/23 15:23:20;;;;;;;6.57;4.22;;;;;;;;;;10289674;28;20026;-78
2023/12/23 15:28:21;;;;;;;9.63;6.80;;;;;;;;;;10289586;28;20026;-75
2023/12/23 15:33:21;;;;;;;9.73;6.38;;;;;;;;;;10301063;28;20026;-84
2023/12/23 15:38:22;;;;;;;10.10;6.45;;;;;;;;;;10292748;28;20026;-83
2023/12/23 15:43:23;;;;;;;12.27;6.18;;;;;;;;;;10280014;28;20030;-77
2023/12/23 15:48:24;;;;;;;9.60;6.20;;;;;;;;;;10298890;28;20050;-71
2023/12/23 15:53:24;;;;;;;8.07;5.10;;;;;;;;;;10297611;28;20028;-76
2023/12/23 15:58:24;;;;;;;15.48;7.90;;;;;;;;;;10296142;28;20030;-77
2023/12/23 16:03:25;;;;;;;19.15;9.90;;;;;;;;;;10291725;28;20449;-72
2023/12/23 16:08:25;;;;;;;15.48;8.52;;;;;;;;;;10282827;28;20465;-74
2023/12/23 16:13:26;;;;;;;14.10;8.77;;;;;;;;;;10298217;28;20026;-74
2023/12/23 16:18:29;;;;;;;16.05;9.45;;;;;;;;;;10287069;28;20490;-75
2023/12/23 16:23:29;;;;;;;14.85;7.93;;;;;;;;;;10297478;28;20026;-75
2023/12/23 16:28:29;;;;;;;14.38;8.85;;;;;;;;;;10295724;28;20027;-73
2023/12/23 16:33:30;;;;;;;12.32;7.53;;;;;;;;;;10283703;28;20019;-76
2023/12/23 16:38:30;;;;;;;12.32;7.15;;;;;;;;;;10300263;28;20018;-75
2023/12/23 16:43:30;;;;;;;11.02;7.03;;;;;;;;;;10294612;28;20033;-74
2023/12/23 16:48:30;;;;;;;9.82;6.70;;;;;;;;;;10295804;28;20050;-73
2023/12/23 16:53:31;;;;;;;13.25;7.22;;;;;;;;;;10303091;28;20022;-74
2023/12/23 16:58:31;;;;;;;14.63;7.97;;;;;;;;;;10293062;28;20018;-75
2023/12/23 17:03:31;;;;;;;13.07;8.57;;;;;;;;;;10313781;28;20082;-75
2023/12/23 17:08:31;;;;;;;12.32;6.97;;;;;;;;;;10302129;28;20036;-77
2023/12/23 17:13:33;;;;;;;20.92;7.47;;;;;;;;;;10292577;28;20015;-73
2023/12/23 17:18:33;;;;;;;12.05;7.38;;;;;;;;;;10292804;28;20038;-73
2023/12/23 17:23:33;;;;;;;9.82;5.30;;;;;;;;;;10288193;28;20490;-74
2023/12/23 17:28:33;;;;;;;20.58;7.78;;;;;;;;;;10290499;28;20035;-73
2023/12/23 17:33:34;;;;;;;14.00;7.55;;;;;;;;;;10297128;28;20088;-79
2023/12/23 17:38:35;;;;;;;14.13;8.23;;;;;;;;;;10303118;28;20022;-74
2023/12/23 17:43:35;;;;;;;16.88;9.20;;;;;;;;;;10297941;28;20045;-75
2023/12/23 17:48:35;;;;;;;23.00;11.50;;;;;;;;;;10298469;28;20035;-74
2023/12/23 17:53:36;;;;;;;19.30;9.77;;;;;;;;;;10291860;28;20010;-73
2023/12/23 17:58:36;;;;;;;21.00;11.52;;;;;;;;;;10293251;28;20022;-71
2023/12/23 18:03:36;;;;;;;21.53;11.03;;;;;;;;;;10292173;28;20121;-75
2023/12/23 18:08:36;;;;;;;17.65;10.45;;;;;;;;;;10292709;28;20413;-77
2023/12/23 18:13:37;;;;;;;18.45;10.73;;;;;;;;;;10297368;28;20014;-73
2023/12/23 18:18:37;;;;;;;20.80;11.55;;;;;;;;;;10295398;28;20018;-74
2023/12/23 18:23:37;;;;;;;20.90;10.77;;;;;;;;;;10297191;28;20026;-74
2023/12/23 18:28:37;;;;;;;19.50;10.75;;;;;;;;;;10294657;28;20030;-74
2023/12/23 18:33:38;;;;;;;20.55;11.73;;;;;;;;;;10298367;28;20026;-73
2023/12/23 18:38:38;;;;;;;23.17;10.57;;;;;;;;;;10305515;28;20084;-74
2023/12/23 18:43:38;;;;;;;22.73;9.80;;;;;;;;;;10298393;28;20485;-73
2023/12/23 18:48:38;;;;;;;16.98;9.65;;;;;;;;;;10285709;28;20065;-72
2023/12/23 18:53:38;;;;;;;18.75;8.95;;;;;;;;;;10300727;28;20090;-78
2023/12/23 18:58:39;;;;;;;23.15;11.45;;;;;;;;;;10294624;28;20619;-72
2023/12/23 19:03:39;;;;;;;18.88;8.27;;;;;;;;;;10303772;28;20101;-73
2023/12/23 19:08:39;;;;;;;19.70;10.82;;;;;;;;;;10302515;28;20019;-73
2023/12/23 19:13:39;;;;;;;18.55;9.10;;;;;;;;;;10302262;28;20529;-73
2023/12/23 19:18:40;;;;;;;24.40;11.73;;;;;;;;;;10316791;28;20101;-73
2023/12/23 19:23:40;;;;;;;30.05;11.85;;;;;;;;;;10288311;28;20080;-73
2023/12/23 19:28:40;;;;;;;19.77;10.38;;;;;;;;;;10294325;28;20018;-73
2023/12/23 19:33:40;;;;;;;25.13;9.85;;;;;;;;;;10292891;28;20019;-75
2023/12/23 19:38:40;;;;;;;22.77;12.15;;;;;;;;;;10285600;28;20540;-75
2023/12/23 19:43:41;;;;;;;21.90;10.68;;;;;;;;;;10304215;28;20018;-73
2023/12/23 19:48:41;;;;;;;19.50;10.90;;;;;;;;;;10298800;28;20054;-73
2023/12/23 19:53:41;;;;;;;21.60;12.63;;;;;;;;;;10295092;28;20019;-74
2023/12/23 19:58:42;;;;;;;23.47;13.50;;;;;;;;;;10277453;28;20046;-74
2023/12/23 20:03:42;;;;;;;23.48;11.18;;;;;;;;;;10311355;28;20262;-73
2023/12/23 20:08:43;;;;;;;19.15;10.82;;;;;;;;;;10288296;28;20042;-81
2023/12/23 20:13:43;;;;;;;18.38;9.95;;;;;;;;;;10291947;28;20061;-74
2023/12/23 20:18:44;;;;;;;15.55;9.73;;;;;;;;;;10287808;28;20027;-72
2023/12/23 20:23:44;;;;;;;16.17;9.90;;;;;;;;;;10274876;28;20029;-75
2023/12/23 20:28:45;;;;;;;29.88;13.60;;;;;;;;;;10298881;28;20450;-72
2023/12/23 20:33:46;;;;;;;24.73;11.15;;;;;;;;;;10302849;28;20022;-75
2023/12/23 20:38:46;;;;;;;17.40;10.27;;;;;;;;;;10291226;28;20023;-72
2023/12/23 20:43:47;;;;;;;18.40;10.32;;;;;;;;;;10314499;28;20097;-74
2023/12/23 20:48:47;;;;;;;19.45;10.60;;;;;;;;;;10278920;28;20050;-74
2023/12/23 20:53:49;;;;;;;24.08;10.55;;;;;;;;;;10283288;28;20084;-72
2023/12/23 20:58:49;;;;;;;15.23;9.40;;;;;;;;;;10293956;28;20010;-77
2023/12/23 21:03:50;;;;;;;17.92;9.38;;;;;;;;;;10315298;28;20424;-75
2023/12/23 21:08:50;;;;;;;14.98;8.25;;;;;;;;;;10292756;28;20026;-72
2023/12/23 21:13:50;;;;;;;14.18;9.02;;;;;;;;;;10289843;28;20367;-73
2023/12/23 21:18:51;;;;;;;15.57;9.10;;;;;;;;;;10289442;28;20015;-73
2023/12/23 21:23:51;;;;;;;14.20;8.60;;;;;;;;;;10286897;28;20750;-73
2023/12/23 21:28:52;;;;;;;13.33;8.70;;;;;;;;;;10292391;28;20269;-71
2023/12/23 21:33:53;;;;;;;17.08;10.23;;;;;;;;;;10289838;28;20212;-76
2023/12/23 21:38:53;;;;;;;15.93;8.20;;;;;;;;;;10286465;28;20470;-75
2023/12/23 21:43:53;;;;;;;22.57;8.53;;;;;;;;;;10284426;28;20029;-73
2023/12/23 21:48:54;;;;;;;13.87;7.77;;;;;;;;;;10299471;28;20549;-74
2023/12/23 21:53:54;;;;;;;14.13;7.75;;;;;;;;;;10296981;28;20353;-75
2023/12/23 21:58:54;;;;;;;23.40;9.30;;;;;;;;;;10297884;28;20026;-72
2023/12/23 22:03:54;;;;;;;15.55;8.07;;;;;;;;;;10303448;28;20021;-72
2023/12/23 22:08:55;;;;;;;15.30;8.38;;;;;;;;;;10301227;28;20054;-72
2023/12/23 22:13:56;;;;;;;15.25;7.25;;;;;;;;;;10294763;28;20027;-74
2023/12/23 22:18:56;;;;;;;11.07;7.35;;;;;;;;;;10296907;28;20019;-73
2023/12/23 22:23:56;;;;;;;17.85;9.07;;;;;;;;;;10300412;28;20408;-74
2023/12/23 22:28:56;;;;;;;18.42;9.90;;;;;;;;;;10300058;28;20025;-72
2023/12/23 22:33:58;;;;;;;18.60;9.65;;;;;;;;;;10317925;28;20043;-72
2023/12/23 22:38:58;;;;;;;23.65;11.43;;;;;;;;;;10284774;28;20026;-73
2023/12/23 22:43:58;;;;;;;25.98;11.23;;;;;;;;;;10308592;28;20030;-74
2023/12/23 22:48:59;;;;;;;17.70;9.32;;;;;;;;;;10301041;28;20217;-75
2023/12/23 22:53:59;;;;;;;19.87;10.63;;;;;;;;;;10282141;28;20018;-74
2023/12/23 22:58:59;;;;;;;21.13;9.98;;;;;;;;;;10280979;28;20031;-73
2023/12/23 23:03:59;;;;;;;15.73;9.15;;;;;;;;;;10286116;28;20033;-74
2023/12/23 23:09:00;;;;;;;19.08;9.02;;;;;;;;;;10300032;28;20441;-74
2023/12/23 23:14:00;;;;;;;19.75;7.85;;;;;;;;;;10286874;28;20130;-72
2023/12/23 23:19:00;;;;;;;18.00;8.27;;;;;;;;;;10299935;28;20057;-74
2023/12/23 23:24:00;;;;;;;16.00;9.52;;;;;;;;;;10288966;28;20065;-73
2023/12/23 23:29:01;;;;;;;16.73;9.18;;;;;;;;;;10304479;28;20022;-74
2023/12/23 23:34:01;;;;;;;20.90;10.07;;;;;;;;;;10302779;28;20025;-79
2023/12/23 23:39:06;;;;;;;16.33;9.75;;;;;;;;;;10304291;28;20457;-76
2023/12/23 23:44:07;;;;;;;17.65;9.15;;;;;;;;;;10301418;28;20057;-72
2023/12/23 23:49:08;;;;;;;17.05;8.82;;;;;;;;;;10297395;28;20061;-75
2023/12/23 23:54:08;;;;;;;17.98;9.77;;;;;;;;;;10297612;28;20038;-72
2023/12/23 23:59:08;;;;;;;18.58;10.63;;;;;;;;;;10304613;28;20482;-76
